sensor_id;sensor_type;location;lat;lon;timestamp;P1;durP1;ratioP1;P2;durP2;ratioP2
48203;SDS011;33994;50.998;5.864;2022-11-14T00:02:27;9.15;;;5.30;;
48203;SDS011;33994;50.998;5.864;2022-11-14T00:05:34;12.35;;;5.72;;
48203;SDS011;33994;50.998;5.864;2022-11-14T00:08:41;10.90;;;6.00;;
48203;SDS011;33994;50.998;5.864;2022-11-14T00:11:46;8.02;;;5.35;;
48203;SDS011;33994;50.998;5.864;2022-11-14T00:14:50;9.63;;;5.60;;
48203;SDS011;33994;50.998;5.864;2022-11-14T00:17:55;9.68;;;6.22;;
48203;SDS011;33994;50.998;5.864;2022-11-14T00:21:00;12.23;;;6.32;;
48203;SDS011;33994;50.998;5.864;2022-11-14T00:24:04;8.70;;;5.57;;
48203;SDS011;33994;50.998;5.864;2022-11-14T00:27:08;11.82;;;6.22;;
48203;SDS011;33994;50.998;5.864;2022-11-14T00:30:14;11.05;;;6.13;;
48203;SDS011;33994;50.998;5.864;2022-11-14T00:33:18;10.98;;;5.93;;
48203;SDS011;33994;50.998;5.864;2022-11-14T00:36:25;12.63;;;5.57;;
48203;SDS011;33994;50.998;5.864;2022-11-14T00:39:29;11.40;;;5.68;;
48203;SDS011;33994;50.998;5.864;2022-11-14T00:42:33;7.75;;;4.95;;
48203;SDS011;33994;50.998;5.864;2022-11-14T00:45:37;8.90;;;5.90;;
48203;SDS011;33994;50.998;5.864;2022-11-14T00:48:42;9.98;;;5.70;;
48203;SDS011;33994;50.998;5.864;2022-11-14T00:51:47;10.43;;;5.97;;
48203;SDS011;33994;50.998;5.864;2022-11-14T00:54:52;9.90;;;5.40;;
48203;SDS011;33994;50.998;5.864;2022-11-14T00:57:56;8.23;;;5.65;;
48203;SDS011;33994;50.998;5.864;2022-11-14T01:01:00;9.85;;;6.07;;
48203;SDS011;33994;50.998;5.864;2022-11-14T01:04:05;12.80;;;5.50;;
48203;SDS011;33994;50.998;5.864;2022-11-14T01:07:10;7.60;;;5.35;;
48203;SDS011;33994;50.998;5.864;2022-11-14T01:10:15;9.82;;;5.70;;
48203;SDS011;33994;50.998;5.864;2022-11-14T01:13:20;10.18;;;5.72;;
48203;SDS011;33994;50.998;5.864;2022-11-14T01:16:24;9.70;;;6.07;;
48203;SDS011;33994;50.998;5.864;2022-11-14T01:19:28;12.63;;;6.53;;
48203;SDS011;33994;50.998;5.864;2022-11-14T01:22:34;11.18;;;6.20;;
48203;SDS011;33994;50.998;5.864;2022-11-14T01:25:39;11.48;;;6.40;;
48203;SDS011;33994;50.998;5.864;2022-11-14T01:28:44;10.65;;;6.18;;
48203;SDS011;33994;50.998;5.864;2022-11-14T01:31:48;9.48;;;6.22;;
48203;SDS011;33994;50.998;5.864;2022-11-14T01:34:52;11.95;;;7.00;;
48203;SDS011;33994;50.998;5.864;2022-11-14T01:37:58;12.70;;;7.00;;
48203;SDS011;33994;50.998;5.864;2022-11-14T01:41:02;11.20;;;7.28;;
48203;SDS011;33994;50.998;5.864;2022-11-14T01:44:11;11.05;;;6.78;;
48203;SDS011;33994;50.998;5.864;2022-11-14T01:47:16;14.05;;;7.75;;
48203;SDS011;33994;50.998;5.864;2022-11-14T01:50:22;12.77;;;7.15;;
48203;SDS011;33994;50.998;5.864;2022-11-14T01:53:28;14.77;;;7.45;;
48203;SDS011;33994;50.998;5.864;2022-11-14T01:56:34;13.68;;;7.68;;
48203;SDS011;33994;50.998;5.864;2022-11-14T01:59:41;18.73;;;8.48;;
48203;SDS011;33994;50.998;5.864;2022-11-14T02:02:50;11.82;;;7.53;;
48203;SDS011;33994;50.998;5.864;2022-11-14T02:05:55;11.77;;;6.68;;
48203;SDS011;33994;50.998;5.864;2022-11-14T02:09:02;11.40;;;6.68;;
48203;SDS011;33994;50.998;5.864;2022-11-14T02:12:09;13.05;;;7.47;;
48203;SDS011;33994;50.998;5.864;2022-11-14T02:15:16;15.27;;;7.22;;
48203;SDS011;33994;50.998;5.864;2022-11-14T02:18:21;15.10;;;7.57;;
48203;SDS011;33994;50.998;5.864;2022-11-14T02:21:26;14.85;;;7.05;;
48203;SDS011;33994;50.998;5.864;2022-11-14T02:24:31;12.18;;;6.90;;
48203;SDS011;33994;50.998;5.864;2022-11-14T02:27:35;12.48;;;7.68;;
48203;SDS011;33994;50.998;5.864;2022-11-14T02:30:41;13.73;;;7.30;;
48203;SDS011;33994;50.998;5.864;2022-11-14T02:33:45;13.10;;;7.47;;
48203;SDS011;33994;50.998;5.864;2022-11-14T02:36:51;11.35;;;7.18;;
48203;SDS011;33994;50.998;5.864;2022-11-14T02:39:56;11.13;;;6.50;;
48203;SDS011;33994;50.998;5.864;2022-11-14T02:43:00;13.75;;;6.82;;
48203;SDS011;33994;50.998;5.864;2022-11-14T02:46:04;12.82;;;6.47;;
48203;SDS011;33994;50.998;5.864;2022-11-14T02:49:08;11.32;;;6.45;;
48203;SDS011;33994;50.998;5.864;2022-11-14T02:52:14;10.43;;;6.65;;
48203;SDS011;33994;50.998;5.864;2022-11-14T02:55:18;10.93;;;6.75;;
48203;SDS011;33994;50.998;5.864;2022-11-14T02:58:23;9.50;;;5.78;;
48203;SDS011;33994;50.998;5.864;2022-11-14T03:01:27;9.52;;;6.13;;
48203;SDS011;33994;50.998;5.864;2022-11-14T03:04:31;13.45;;;6.22;;
48203;SDS011;33994;50.998;5.864;2022-11-14T03:07:37;10.20;;;6.75;;
48203;SDS011;33994;50.998;5.864;2022-11-14T03:10:41;10.70;;;6.40;;
48203;SDS011;33994;50.998;5.864;2022-11-14T03:13:45;10.38;;;5.70;;
48203;SDS011;33994;50.998;5.864;2022-11-14T03:16:50;10.27;;;6.28;;
48203;SDS011;33994;50.998;5.864;2022-11-14T03:19:54;9.77;;;6.45;;
48203;SDS011;33994;50.998;5.864;2022-11-14T03:23:00;11.85;;;6.03;;
48203;SDS011;33994;50.998;5.864;2022-11-14T03:26:04;10.77;;;5.90;;
48203;SDS011;33994;50.998;5.864;2022-11-14T03:29:10;11.80;;;6.50;;
48203;SDS011;33994;50.998;5.864;2022-11-14T03:32:14;9.90;;;6.05;;
48203;SDS011;33994;50.998;5.864;2022-11-14T03:35:19;10.75;;;6.47;;
48203;SDS011;33994;50.998;5.864;2022-11-14T03:38:25;11.77;;;6.47;;
48203;SDS011;33994;50.998;5.864;2022-11-14T03:41:29;10.02;;;6.13;;
48203;SDS011;33994;50.998;5.864;2022-11-14T03:44:33;10.90;;;6.68;;
48203;SDS011;33994;50.998;5.864;2022-11-14T03:47:38;14.70;;;7.40;;
48203;SDS011;33994;50.998;5.864;2022-11-14T03:50:42;14.27;;;8.00;;
48203;SDS011;33994;50.998;5.864;2022-11-14T03:53:48;13.98;;;7.55;;
48203;SDS011;33994;50.998;5.864;2022-11-14T03:56:52;17.42;;;8.20;;
48203;SDS011;33994;50.998;5.864;2022-11-14T03:59:56;13.75;;;7.95;;
48203;SDS011;33994;50.998;5.864;2022-11-14T04:03:01;13.55;;;8.13;;
48203;SDS011;33994;50.998;5.864;2022-11-14T04:06:05;12.77;;;7.82;;
48203;SDS011;33994;50.998;5.864;2022-11-14T04:09:11;14.85;;;8.10;;
48203;SDS011;33994;50.998;5.864;2022-11-14T04:12:15;15.60;;;8.20;;
48203;SDS011;33994;50.998;5.864;2022-11-14T04:15:19;13.30;;;7.85;;
48203;SDS011;33994;50.998;5.864;2022-11-14T04:18:24;15.27;;;8.38;;
48203;SDS011;33994;50.998;5.864;2022-11-14T04:21:29;16.05;;;7.85;;
48203;SDS011;33994;50.998;5.864;2022-11-14T04:24:34;12.30;;;7.45;;
48203;SDS011;33994;50.998;5.864;2022-11-14T04:27:39;16.02;;;7.40;;
48203;SDS011;33994;50.998;5.864;2022-11-14T04:30:43;13.38;;;7.60;;
48203;SDS011;33994;50.998;5.864;2022-11-14T04:33:47;13.25;;;7.43;;
48203;SDS011;33994;50.998;5.864;2022-11-14T04:36:52;16.27;;;6.95;;
48203;SDS011;33994;50.998;5.864;2022-11-14T04:39:58;8.25;;;5.95;;
48203;SDS011;33994;50.998;5.864;2022-11-14T04:43:04;15.40;;;7.57;;
48203;SDS011;33994;50.998;5.864;2022-11-14T04:46:08;11.45;;;6.95;;
48203;SDS011;33994;50.998;5.864;2022-11-14T04:49:12;12.02;;;6.95;;
48203;SDS011;33994;50.998;5.864;2022-11-14T04:52:16;10.55;;;6.90;;
48203;SDS011;33994;50.998;5.864;2022-11-14T04:55:22;12.98;;;7.53;;
48203;SDS011;33994;50.998;5.864;2022-11-14T04:58:26;16.65;;;7.05;;
48203;SDS011;33994;50.998;5.864;2022-11-14T05:01:31;11.73;;;7.22;;
48203;SDS011;33994;50.998;5.864;2022-11-14T05:04:35;13.38;;;6.75;;
48203;SDS011;33994;50.998;5.864;2022-11-14T05:07:39;11.77;;;7.60;;
48203;SDS011;33994;50.998;5.864;2022-11-14T05:10:45;12.52;;;7.13;;
48203;SDS011;33994;50.998;5.864;2022-11-14T05:13:50;11.30;;;7.40;;
48203;SDS011;33994;50.998;5.864;2022-11-14T05:16:54;12.50;;;6.80;;
48203;SDS011;33994;50.998;5.864;2022-11-14T05:19:58;12.45;;;7.68;;
48203;SDS011;33994;50.998;5.864;2022-11-14T05:23:02;11.50;;;6.95;;
48203;SDS011;33994;50.998;5.864;2022-11-14T05:26:09;12.10;;;6.65;;
48203;SDS011;33994;50.998;5.864;2022-11-14T05:29:15;15.48;;;8.20;;
48203;SDS011;33994;50.998;5.864;2022-11-14T05:32:19;12.27;;;7.10;;
48203;SDS011;33994;50.998;5.864;2022-11-14T05:35:24;10.52;;;6.75;;
48203;SDS011;33994;50.998;5.864;2022-11-14T05:38:28;10.10;;;6.70;;
48203;SDS011;33994;50.998;5.864;2022-11-14T05:41:33;10.93;;;5.88;;
48203;SDS011;33994;50.998;5.864;2022-11-14T05:44:38;11.55;;;6.90;;
48203;SDS011;33994;50.998;5.864;2022-11-14T05:47:42;13.80;;;7.22;;
48203;SDS011;33994;50.998;5.864;2022-11-14T05:50:46;11.85;;;6.53;;
48203;SDS011;33994;50.998;5.864;2022-11-14T05:53:51;11.50;;;6.75;;
48203;SDS011;33994;50.998;5.864;2022-11-14T05:56:56;12.45;;;7.22;;
48203;SDS011;33994;50.998;5.864;2022-11-14T06:00:00;11.07;;;6.63;;
48203;SDS011;33994;50.998;5.864;2022-11-14T06:03:05;13.30;;;6.63;;
48203;SDS011;33994;50.998;5.864;2022-11-14T06:06:10;11.68;;;6.30;;
48203;SDS011;33994;50.998;5.864;2022-11-14T06:09:15;11.52;;;6.60;;
48203;SDS011;33994;50.998;5.864;2022-11-14T06:12:21;10.02;;;6.18;;
48203;SDS011;33994;50.998;5.864;2022-11-14T06:15:25;12.18;;;7.03;;
48203;SDS011;33994;50.998;5.864;2022-11-14T06:18:29;10.98;;;6.25;;
48203;SDS011;33994;50.998;5.864;2022-11-14T06:21:34;11.02;;;7.22;;
48203;SDS011;33994;50.998;5.864;2022-11-14T06:24:39;11.35;;;6.60;;
48203;SDS011;33994;50.998;5.864;2022-11-14T06:27:44;15.07;;;7.45;;
48203;SDS011;33994;50.998;5.864;2022-11-14T06:30:49;13.30;;;6.82;;
48203;SDS011;33994;50.998;5.864;2022-11-14T06:33:53;11.70;;;6.88;;
48203;SDS011;33994;50.998;5.864;2022-11-14T06:36:58;19.77;;;8.32;;
48203;SDS011;33994;50.998;5.864;2022-11-14T06:40:03;12.80;;;7.05;;
48203;SDS011;33994;50.998;5.864;2022-11-14T06:43:09;16.17;;;6.65;;
48203;SDS011;33994;50.998;5.864;2022-11-14T06:46:15;10.65;;;7.07;;
48203;SDS011;33994;50.998;5.864;2022-11-14T06:49:20;13.95;;;7.28;;
48203;SDS011;33994;50.998;5.864;2022-11-14T06:52:26;14.50;;;6.88;;
48203;SDS011;33994;50.998;5.864;2022-11-14T06:55:30;14.05;;;7.03;;
48203;SDS011;33994;50.998;5.864;2022-11-14T06:58:36;12.27;;;7.15;;
48203;SDS011;33994;50.998;5.864;2022-11-14T07:01:42;13.80;;;7.30;;
48203;SDS011;33994;50.998;5.864;2022-11-14T07:04:46;12.23;;;6.60;;
48203;SDS011;33994;50.998;5.864;2022-11-14T07:07:50;14.88;;;6.78;;
48203;SDS011;33994;50.998;5.864;2022-11-14T07:10:59;13.27;;;7.20;;
48203;SDS011;33994;50.998;5.864;2022-11-14T07:14:05;14.23;;;7.05;;
48203;SDS011;33994;50.998;5.864;2022-11-14T07:17:10;13.55;;;6.95;;
48203;SDS011;33994;50.998;5.864;2022-11-14T07:20:14;15.05;;;6.82;;
48203;SDS011;33994;50.998;5.864;2022-11-14T07:23:20;14.07;;;7.13;;
48203;SDS011;33994;50.998;5.864;2022-11-14T07:26:24;17.10;;;8.02;;
48203;SDS011;33994;50.998;5.864;2022-11-14T07:29:31;21.70;;;8.27;;
48203;SDS011;33994;50.998;5.864;2022-11-14T07:32:35;18.02;;;6.80;;
48203;SDS011;33994;50.998;5.864;2022-11-14T07:35:39;13.75;;;7.22;;
48203;SDS011;33994;50.998;5.864;2022-11-14T07:38:43;21.10;;;7.45;;
48203;SDS011;33994;50.998;5.864;2022-11-14T07:41:48;24.95;;;7.80;;
48203;SDS011;33994;50.998;5.864;2022-11-14T07:44:53;24.60;;;7.53;;
48203;SDS011;33994;50.998;5.864;2022-11-14T07:47:58;15.70;;;9.90;;
48203;SDS011;33994;50.998;5.864;2022-11-14T07:51:04;28.17;;;9.25;;
48203;SDS011;33994;50.998;5.864;2022-11-14T07:54:09;30.30;;;9.25;;
48203;SDS011;33994;50.998;5.864;2022-11-14T07:57:14;23.00;;;9.00;;
48203;SDS011;33994;50.998;5.864;2022-11-14T08:00:20;33.13;;;9.57;;
48203;SDS011;33994;50.998;5.864;2022-11-14T08:03:24;25.73;;;9.80;;
48203;SDS011;33994;50.998;5.864;2022-11-14T08:06:29;44.38;;;14.25;;
48203;SDS011;33994;50.998;5.864;2022-11-14T08:09:33;22.52;;;8.50;;
48203;SDS011;33994;50.998;5.864;2022-11-14T08:12:38;43.10;;;12.93;;
48203;SDS011;33994;50.998;5.864;2022-11-14T08:15:44;47.97;;;12.82;;
48203;SDS011;33994;50.998;5.864;2022-11-14T08:18:48;52.50;;;16.38;;
48203;SDS011;33994;50.998;5.864;2022-11-14T08:21:52;23.67;;;9.65;;
48203;SDS011;33994;50.998;5.864;2022-11-14T08:24:56;42.70;;;12.77;;
48203;SDS011;33994;50.998;5.864;2022-11-14T08:28:00;43.28;;;11.70;;
48203;SDS011;33994;50.998;5.864;2022-11-14T08:31:06;20.88;;;8.90;;
48203;SDS011;33994;50.998;5.864;2022-11-14T08:34:11;26.83;;;9.07;;
48203;SDS011;33994;50.998;5.864;2022-11-14T08:37:16;27.20;;;9.43;;
48203;SDS011;33994;50.998;5.864;2022-11-14T08:40:20;45.50;;;12.13;;
48203;SDS011;33994;50.998;5.864;2022-11-14T08:43:25;25.15;;;9.38;;
48203;SDS011;33994;50.998;5.864;2022-11-14T08:46:31;16.92;;;8.23;;
48203;SDS011;33994;50.998;5.864;2022-11-14T08:49:35;60.75;;;17.15;;
48203;SDS011;33994;50.998;5.864;2022-11-14T08:52:39;51.40;;;13.75;;
48203;SDS011;33994;50.998;5.864;2022-11-14T08:55:43;53.67;;;14.05;;
48203;SDS011;33994;50.998;5.864;2022-11-14T08:58:48;93.35;;;23.52;;
48203;SDS011;33994;50.998;5.864;2022-11-14T09:01:54;24.33;;;10.70;;
48203;SDS011;33994;50.998;5.864;2022-11-14T09:04:58;18.73;;;8.75;;
48203;SDS011;33994;50.998;5.864;2022-11-14T09:08:02;19.35;;;9.45;;
48203;SDS011;33994;50.998;5.864;2022-11-14T09:11:07;24.98;;;9.80;;
48203;SDS011;33994;50.998;5.864;2022-11-14T09:14:11;29.25;;;11.13;;
48203;SDS011;33994;50.998;5.864;2022-11-14T09:17:17;24.92;;;10.82;;
48203;SDS011;33994;50.998;5.864;2022-11-14T09:20:21;29.17;;;11.05;;
48203;SDS011;33994;50.998;5.864;2022-11-14T09:23:26;52.03;;;16.10;;
48203;SDS011;33994;50.998;5.864;2022-11-14T09:26:30;22.30;;;9.90;;
48203;SDS011;33994;50.998;5.864;2022-11-14T09:29:35;74.03;;;22.92;;
48203;SDS011;33994;50.998;5.864;2022-11-14T09:32:40;50.28;;;15.93;;
48203;SDS011;33994;50.998;5.864;2022-11-14T09:35:45;47.90;;;15.73;;
48203;SDS011;33994;50.998;5.864;2022-11-14T09:38:49;25.55;;;10.85;;
48203;SDS011;33994;50.998;5.864;2022-11-14T09:41:57;30.15;;;12.07;;
48203;SDS011;33994;50.998;5.864;2022-11-14T09:45:13;21.20;;;10.88;;
48203;SDS011;33994;50.998;5.864;2022-11-14T09:48:20;18.35;;;9.38;;
48203;SDS011;33994;50.998;5.864;2022-11-14T09:51:28;18.65;;;9.20;;
48203;SDS011;33994;50.998;5.864;2022-11-14T09:54:36;19.45;;;10.48;;
48203;SDS011;33994;50.998;5.864;2022-11-14T09:57:46;14.23;;;8.65;;
48203;SDS011;33994;50.998;5.864;2022-11-14T10:00:55;24.33;;;9.27;;
48203;SDS011;33994;50.998;5.864;2022-11-14T10:04:08;24.05;;;10.25;;
48203;SDS011;33994;50.998;5.864;2022-11-14T10:07:22;51.83;;;14.10;;
48203;SDS011;33994;50.998;5.864;2022-11-14T10:10:42;25.23;;;10.45;;
48203;SDS011;33994;50.998;5.864;2022-11-14T10:14:02;20.25;;;8.98;;
48203;SDS011;33994;50.998;5.864;2022-11-14T10:17:22;23.75;;;10.07;;
48203;SDS011;33994;50.998;5.864;2022-11-14T10:20:45;21.88;;;9.45;;
48203;SDS011;33994;50.998;5.864;2022-11-14T10:23:57;19.13;;;9.13;;
48203;SDS011;33994;50.998;5.864;2022-11-14T10:27:10;17.65;;;8.93;;
48203;SDS011;33994;50.998;5.864;2022-11-14T10:30:21;21.13;;;9.77;;
48203;SDS011;33994;50.998;5.864;2022-11-14T10:33:28;25.05;;;9.90;;
48203;SDS011;33994;50.998;5.864;2022-11-14T10:36:48;33.35;;;11.05;;
48203;SDS011;33994;50.998;5.864;2022-11-14T10:40:00;44.90;;;13.15;;
48203;SDS011;33994;50.998;5.864;2022-11-14T10:43:17;117.50;;;29.92;;
48203;SDS011;33994;50.998;5.864;2022-11-14T10:46:27;176.57;;;49.97;;
48203;SDS011;33994;50.998;5.864;2022-11-14T10:49:36;56.97;;;20.05;;
48203;SDS011;33994;50.998;5.864;2022-11-14T10:52:42;52.80;;;21.00;;
48203;SDS011;33994;50.998;5.864;2022-11-14T10:55:48;62.50;;;22.73;;
48203;SDS011;33994;50.998;5.864;2022-11-14T10:58:53;102.05;;;40.33;;
48203;SDS011;33994;50.998;5.864;2022-11-14T11:01:58;82.90;;;31.35;;
48203;SDS011;33994;50.998;5.864;2022-11-14T11:05:03;186.45;;;62.58;;
48203;SDS011;33994;50.998;5.864;2022-11-14T11:08:19;173.88;;;62.30;;
48203;SDS011;33994;50.998;5.864;2022-11-14T11:11:42;103.75;;;40.47;;
48203;SDS011;33994;50.998;5.864;2022-11-14T11:15:07;73.43;;;27.65;;
48203;SDS011;33994;50.998;5.864;2022-11-14T11:18:23;64.15;;;24.70;;
48203;SDS011;33994;50.998;5.864;2022-11-14T11:21:29;146.25;;;44.00;;
48203;SDS011;33994;50.998;5.864;2022-11-14T11:24:51;59.15;;;22.45;;
48203;SDS011;33994;50.998;5.864;2022-11-14T11:28:02;32.67;;;14.15;;
48203;SDS011;33994;50.998;5.864;2022-11-14T11:31:08;141.23;;;47.58;;
48203;SDS011;33994;50.998;5.864;2022-11-14T11:34:13;218.25;;;74.85;;
48203;SDS011;33994;50.998;5.864;2022-11-14T11:37:19;93.50;;;33.83;;
48203;SDS011;33994;50.998;5.864;2022-11-14T11:40:29;171.05;;;62.00;;
48203;SDS011;33994;50.998;5.864;2022-11-14T11:43:38;170.52;;;62.92;;
48203;SDS011;33994;50.998;5.864;2022-11-14T11:46:47;419.15;;;139.55;;
48203;SDS011;33994;50.998;5.864;2022-11-14T11:49:56;194.23;;;65.25;;
48203;SDS011;33994;50.998;5.864;2022-11-14T11:53:04;91.13;;;32.47;;
48203;SDS011;33994;50.998;5.864;2022-11-14T11:56:23;45.97;;;19.90;;
48203;SDS011;33994;50.998;5.864;2022-11-14T11:59:31;40.22;;;16.38;;
48203;SDS011;33994;50.998;5.864;2022-11-14T12:02:41;63.72;;;23.20;;
48203;SDS011;33994;50.998;5.864;2022-11-14T12:05:50;41.75;;;17.75;;
48203;SDS011;33994;50.998;5.864;2022-11-14T12:09:03;34.22;;;14.18;;
48203;SDS011;33994;50.998;5.864;2022-11-14T12:12:20;32.65;;;14.65;;
48203;SDS011;33994;50.998;5.864;2022-11-14T12:15:30;46.95;;;17.58;;
48203;SDS011;33994;50.998;5.864;2022-11-14T12:18:52;27.08;;;13.70;;
48203;SDS011;33994;50.998;5.864;2022-11-14T12:22:26;33.25;;;15.43;;
48203;SDS011;33994;50.998;5.864;2022-11-14T12:25:44;31.20;;;13.73;;
48203;SDS011;33994;50.998;5.864;2022-11-14T12:29:11;43.00;;;20.13;;
48203;SDS011;33994;50.998;5.864;2022-11-14T12:32:45;28.75;;;13.93;;
48203;SDS011;33994;50.998;5.864;2022-11-14T12:38:58;25.92;;;14.60;;
48203;SDS011;33994;50.998;5.864;2022-11-14T12:42:05;23.58;;;12.73;;
48203;SDS011;33994;50.998;5.864;2022-11-14T12:48:50;20.50;;;10.57;;
48203;SDS011;33994;50.998;5.864;2022-11-14T12:51:55;18.40;;;10.52;;
48203;SDS011;33994;50.998;5.864;2022-11-14T12:54:59;19.20;;;9.43;;
48203;SDS011;33994;50.998;5.864;2022-11-14T12:58:04;16.90;;;8.35;;
48203;SDS011;33994;50.998;5.864;2022-11-14T13:01:18;15.23;;;8.53;;
48203;SDS011;33994;50.998;5.864;2022-11-14T13:04:33;18.85;;;9.48;;
48203;SDS011;33994;50.998;5.864;2022-11-14T13:07:45;15.13;;;8.52;;
48203;SDS011;33994;50.998;5.864;2022-11-14T13:10:56;26.33;;;9.77;;
48203;SDS011;33994;50.998;5.864;2022-11-14T13:14:00;129.60;;;18.42;;
48203;SDS011;33994;50.998;5.864;2022-11-14T13:17:24;81.40;;;14.43;;
48203;SDS011;33994;50.998;5.864;2022-11-14T13:20:59;11.82;;;6.10;;
48203;SDS011;33994;50.998;5.864;2022-11-14T13:24:22;9.30;;;4.60;;
48203;SDS011;33994;50.998;5.864;2022-11-14T13:27:27;40.85;;;7.63;;
48203;SDS011;33994;50.998;5.864;2022-11-14T13:34:27;10.65;;;3.75;;
48203;SDS011;33994;50.998;5.864;2022-11-14T13:37:48;6.30;;;4.05;;
48203;SDS011;33994;50.998;5.864;2022-11-14T13:41:12;8.07;;;4.07;;
48203;SDS011;33994;50.998;5.864;2022-11-14T13:51:52;9.25;;;4.00;;
48203;SDS011;33994;50.998;5.864;2022-11-14T13:54:58;7.45;;;3.90;;
48203;SDS011;33994;50.998;5.864;2022-11-14T13:58:07;8.60;;;3.60;;
48203;SDS011;33994;50.998;5.864;2022-11-14T14:01:22;7.07;;;3.85;;
48203;SDS011;33994;50.998;5.864;2022-11-14T14:04:39;6.90;;;4.00;;
48203;SDS011;33994;50.998;5.864;2022-11-14T14:07:57;6.40;;;3.67;;
48203;SDS011;33994;50.998;5.864;2022-11-14T14:11:20;6.90;;;3.80;;
48203;SDS011;33994;50.998;5.864;2022-11-14T14:14:37;6.63;;;3.90;;
48203;SDS011;33994;50.998;5.864;2022-11-14T14:17:55;6.28;;;3.80;;
48203;SDS011;33994;50.998;5.864;2022-11-14T14:21:09;6.78;;;4.28;;
48203;SDS011;33994;50.998;5.864;2022-11-14T14:24:36;7.68;;;4.50;;
48203;SDS011;33994;50.998;5.864;2022-11-14T14:27:54;6.95;;;3.92;;
48203;SDS011;33994;50.998;5.864;2022-11-14T14:31:09;8.07;;;4.15;;
48203;SDS011;33994;50.998;5.864;2022-11-14T14:34:21;6.00;;;3.70;;
48203;SDS011;33994;50.998;5.864;2022-11-14T14:37:27;7.50;;;4.13;;
48203;SDS011;33994;50.998;5.864;2022-11-14T14:40:33;6.72;;;3.92;;
48203;SDS011;33994;50.998;5.864;2022-11-14T14:43:41;9.57;;;5.20;;
48203;SDS011;33994;50.998;5.864;2022-11-14T14:46:52;7.93;;;4.22;;
48203;SDS011;33994;50.998;5.864;2022-11-14T14:49:57;8.10;;;4.60;;
48203;SDS011;33994;50.998;5.864;2022-11-14T14:53:02;6.70;;;4.25;;
48203;SDS011;33994;50.998;5.864;2022-11-14T14:56:20;9.52;;;4.57;;
48203;SDS011;33994;50.998;5.864;2022-11-14T14:59:28;10.07;;;4.57;;
48203;SDS011;33994;50.998;5.864;2022-11-14T15:02:33;7.25;;;4.32;;
48203;SDS011;33994;50.998;5.864;2022-11-14T15:05:38;6.93;;;4.35;;
48203;SDS011;33994;50.998;5.864;2022-11-14T15:08:43;6.45;;;4.13;;
48203;SDS011;33994;50.998;5.864;2022-11-14T15:11:48;6.40;;;4.50;;
48203;SDS011;33994;50.998;5.864;2022-11-14T15:14:56;7.72;;;4.60;;
48203;SDS011;33994;50.998;5.864;2022-11-14T15:18:04;6.80;;;4.32;;
48203;SDS011;33994;50.998;5.864;2022-11-14T15:21:13;6.22;;;4.10;;
48203;SDS011;33994;50.998;5.864;2022-11-14T15:24:20;5.00;;;4.07;;
48203;SDS011;33994;50.998;5.864;2022-11-14T15:27:25;7.80;;;4.70;;
48203;SDS011;33994;50.998;5.864;2022-11-14T15:30:32;9.23;;;4.60;;
48203;SDS011;33994;50.998;5.864;2022-11-14T15:33:37;7.35;;;4.70;;
48203;SDS011;33994;50.998;5.864;2022-11-14T15:40:14;7.03;;;4.65;;
48203;SDS011;33994;50.998;5.864;2022-11-14T15:43:36;6.32;;;4.25;;
48203;SDS011;33994;50.998;5.864;2022-11-14T15:46:52;5.97;;;4.10;;
48203;SDS011;33994;50.998;5.864;2022-11-14T15:49:58;5.78;;;3.83;;
48203;SDS011;33994;50.998;5.864;2022-11-14T15:53:05;7.55;;;5.07;;
48203;SDS011;33994;50.998;5.864;2022-11-14T15:56:19;6.50;;;4.20;;
48203;SDS011;33994;50.998;5.864;2022-11-14T15:59:24;7.40;;;4.97;;
48203;SDS011;33994;50.998;5.864;2022-11-14T16:02:30;6.85;;;4.35;;
48203;SDS011;33994;50.998;5.864;2022-11-14T16:05:37;7.53;;;4.95;;
48203;SDS011;33994;50.998;5.864;2022-11-14T16:08:41;6.50;;;4.25;;
48203;SDS011;33994;50.998;5.864;2022-11-14T16:11:46;7.03;;;4.50;;
48203;SDS011;33994;50.998;5.864;2022-11-14T16:14:50;7.82;;;4.90;;
48203;SDS011;33994;50.998;5.864;2022-11-14T16:17:55;9.70;;;5.47;;
48203;SDS011;33994;50.998;5.864;2022-11-14T16:21:00;8.65;;;5.68;;
48203;SDS011;33994;50.998;5.864;2022-11-14T16:24:04;11.50;;;6.45;;
48203;SDS011;33994;50.998;5.864;2022-11-14T16:27:09;7.32;;;4.65;;
48203;SDS011;33994;50.998;5.864;2022-11-14T16:30:14;8.52;;;5.32;;
48203;SDS011;33994;50.998;5.864;2022-11-14T16:33:22;11.57;;;6.15;;
48203;SDS011;33994;50.998;5.864;2022-11-14T16:36:26;9.63;;;5.70;;
48203;SDS011;33994;50.998;5.864;2022-11-14T16:39:30;9.52;;;5.13;;
48203;SDS011;33994;50.998;5.864;2022-11-14T16:42:35;9.48;;;5.63;;
48203;SDS011;33994;50.998;5.864;2022-11-14T16:45:39;11.68;;;6.20;;
48203;SDS011;33994;50.998;5.864;2022-11-14T16:48:45;10.48;;;5.95;;
48203;SDS011;33994;50.998;5.864;2022-11-14T16:51:49;11.60;;;6.93;;
48203;SDS011;33994;50.998;5.864;2022-11-14T16:54:54;10.60;;;6.43;;
48203;SDS011;33994;50.998;5.864;2022-11-14T16:57:58;8.52;;;5.50;;
48203;SDS011;33994;50.998;5.864;2022-11-14T17:01:03;10.35;;;6.20;;
48203;SDS011;33994;50.998;5.864;2022-11-14T17:04:08;11.20;;;6.50;;
48203;SDS011;33994;50.998;5.864;2022-11-14T17:07:13;11.35;;;7.75;;
48203;SDS011;33994;50.998;5.864;2022-11-14T17:10:17;9.48;;;6.47;;
48203;SDS011;33994;50.998;5.864;2022-11-14T17:13:22;11.40;;;7.00;;
48203;SDS011;33994;50.998;5.864;2022-11-14T17:16:27;13.13;;;7.72;;
48203;SDS011;33994;50.998;5.864;2022-11-14T17:19:33;14.90;;;6.85;;
48203;SDS011;33994;50.998;5.864;2022-11-14T17:22:37;15.43;;;7.40;;
48203;SDS011;33994;50.998;5.864;2022-11-14T17:25:42;12.77;;;7.35;;
48203;SDS011;33994;50.998;5.864;2022-11-14T17:28:47;13.23;;;7.10;;
48203;SDS011;33994;50.998;5.864;2022-11-14T17:31:52;12.30;;;7.35;;
48203;SDS011;33994;50.998;5.864;2022-11-14T17:34:57;13.65;;;6.93;;
48203;SDS011;33994;50.998;5.864;2022-11-14T17:38:02;11.75;;;6.95;;
48203;SDS011;33994;50.998;5.864;2022-11-14T17:41:06;13.98;;;7.50;;
48203;SDS011;33994;50.998;5.864;2022-11-14T17:44:10;12.32;;;7.13;;
48203;SDS011;33994;50.998;5.864;2022-11-14T17:47:15;12.27;;;6.88;;
48203;SDS011;33994;50.998;5.864;2022-11-14T17:50:20;14.73;;;8.38;;
48203;SDS011;33994;50.998;5.864;2022-11-14T17:53:24;17.05;;;8.20;;
48203;SDS011;33994;50.998;5.864;2022-11-14T17:56:29;14.23;;;7.20;;
48203;SDS011;33994;50.998;5.864;2022-11-14T17:59:33;13.18;;;7.72;;
48203;SDS011;33994;50.998;5.864;2022-11-14T18:02:38;13.23;;;7.47;;
48203;SDS011;33994;50.998;5.864;2022-11-14T18:05:43;13.60;;;7.88;;
48203;SDS011;33994;50.998;5.864;2022-11-14T18:08:47;14.68;;;8.25;;
48203;SDS011;33994;50.998;5.864;2022-11-14T18:11:52;14.55;;;8.02;;
48203;SDS011;33994;50.998;5.864;2022-11-14T18:14:56;12.90;;;8.63;;
48203;SDS011;33994;50.998;5.864;2022-11-14T18:18:00;14.15;;;8.57;;
48203;SDS011;33994;50.998;5.864;2022-11-14T18:21:07;17.52;;;9.20;;
48203;SDS011;33994;50.998;5.864;2022-11-14T18:24:11;16.35;;;8.50;;
48203;SDS011;33994;50.998;5.864;2022-11-14T18:27:17;16.48;;;8.82;;
48203;SDS011;33994;50.998;5.864;2022-11-14T18:30:22;15.32;;;9.00;;
48203;SDS011;33994;50.998;5.864;2022-11-14T18:33:26;13.75;;;8.63;;
48203;SDS011;33994;50.998;5.864;2022-11-14T18:36:31;16.95;;;9.65;;
48203;SDS011;33994;50.998;5.864;2022-11-14T18:39:36;13.27;;;8.45;;
48203;SDS011;33994;50.998;5.864;2022-11-14T18:42:40;14.20;;;8.02;;
48203;SDS011;33994;50.998;5.864;2022-11-14T18:45:44;14.98;;;9.00;;
48203;SDS011;33994;50.998;5.864;2022-11-14T18:48:51;15.52;;;9.20;;
48203;SDS011;33994;50.998;5.864;2022-11-14T18:51:57;18.77;;;9.40;;